createdAt,value
2022-12-25T00:00:20.934Z,84.42
2022-12-25T00:05:24.397Z,84.58
2022-12-25T00:10:28.482Z,84.82
2022-12-25T00:15:31.326Z,84.71
2022-12-25T00:20:34.127Z,84.56
2022-12-25T00:25:42.025Z,85.01
2022-12-25T00:30:44.784Z,85.20
2022-12-25T00:35:58.360Z,85.51
2022-12-25T00:41:06.077Z,85.81
2022-12-25T00:46:10.257Z,85.95
2022-12-25T00:51:13.219Z,86.28
2022-12-25T00:56:17.435Z,86.35
2022-12-25T01:01:20.314Z,86.22
2022-12-25T01:06:23.101Z,85.92
2022-12-25T01:11:27.233Z,86.08
2022-12-25T01:16:30.063Z,86.34
2022-12-25T01:21:32.849Z,86.19
2022-12-25T01:26:37.011Z,86.08
2022-12-25T01:31:39.759Z,86.19
2022-12-25T01:36:42.479Z,86.50
2022-12-25T01:41:48.042Z,86.37
2022-12-25T01:46:50.763Z,86.34
2022-12-25T01:51:55.631Z,85.55
2022-12-25T01:57:02.416Z,85.40
2022-12-25T02:02:05.413Z,84.85
2022-12-25T02:07:10.155Z,84.67
2022-12-25T02:12:19.355Z,84.89
2022-12-25T02:17:26.765Z,84.12
2022-12-25T02:22:35.913Z,84.10
2022-12-25T02:27:55.889Z,84.47
2022-12-25T02:33:15.481Z,84.52
2022-12-25T02:38:21.562Z,84.59
2022-12-25T02:43:58.028Z,84.57
2022-12-25T02:49:22.128Z,84.41
2022-12-25T02:54:46.415Z,84.73
2022-12-25T03:00:09.700Z,84.68
2022-12-25T03:05:33.486Z,84.53
2022-12-25T03:10:55.734Z,84.72
2022-12-25T03:16:17.313Z,84.21
2022-12-25T03:21:39.695Z,84.25
2022-12-25T03:27:02.350Z,84.34
2022-12-25T03:32:11.367Z,83.93
2022-12-25T03:37:38.130Z,84.27
2022-12-25T03:43:02.115Z,84.19
2022-12-25T03:48:24.839Z,84.39
2022-12-25T03:53:48.330Z,84.33
2022-12-25T03:59:10.136Z,84.43
2022-12-25T04:04:31.765Z,84.84
2022-12-25T04:09:51.988Z,84.49
2022-12-25T04:15:12.126Z,84.73
2022-12-25T04:20:33.854Z,84.71
2022-12-25T04:25:54.010Z,84.81
2022-12-25T04:31:14.635Z,85.05
2022-12-25T04:36:18.849Z,85.32
2022-12-25T04:41:21.603Z,85.48
2022-12-25T04:46:24.426Z,85.08
2022-12-25T04:51:28.524Z,85.29
2022-12-25T04:56:31.238Z,85.37
2022-12-25T05:01:34.051Z,85.01
2022-12-25T05:06:38.984Z,85.30
2022-12-25T05:11:41.740Z,85.07
2022-12-25T05:16:44.636Z,85.58
2022-12-25T05:21:48.789Z,85.76
2022-12-25T05:26:51.512Z,86.07
2022-12-25T05:31:54.256Z,86.41
2022-12-25T05:36:58.411Z,86.42
2022-12-25T05:42:01.223Z,86.07
2022-12-25T05:47:04.043Z,86.04
2022-12-25T05:52:08.285Z,86.46
2022-12-25T05:57:11.027Z,86.25
2022-12-25T06:02:13.826Z,85.76
2022-12-25T06:07:18.256Z,85.53
2022-12-25T06:12:20.940Z,85.71
2022-12-25T06:17:26.255Z,85.77
2022-12-25T06:22:31.089Z,85.79
2022-12-25T06:27:33.898Z,85.59
2022-12-25T06:32:36.685Z,85.77
2022-12-25T06:37:41.081Z,85.75
2022-12-25T06:42:43.867Z,85.83
2022-12-25T06:47:46.604Z,85.59
2022-12-25T06:52:50.758Z,85.51
2022-12-25T06:57:53.606Z,85.36
2022-12-25T07:02:56.651Z,85.40
2022-12-25T07:08:00.825Z,85.07
2022-12-25T07:13:03.542Z,85.09
2022-12-25T07:18:06.456Z,84.91
2022-12-25T07:23:10.791Z,84.81
2022-12-25T07:28:13.487Z,84.49
2022-12-25T07:33:17.370Z,84.08
2022-12-25T07:38:21.438Z,84.14
2022-12-25T07:43:25.187Z,83.62
2022-12-25T07:48:28.510Z,83.54
2022-12-25T07:53:32.928Z,83.20
2022-12-25T07:58:36.104Z,83.11
2022-12-25T08:03:38.933Z,82.72
2022-12-25T08:08:43.162Z,82.60
2022-12-25T08:13:46.044Z,82.50
2022-12-25T08:18:49.101Z,82.46
2022-12-25T08:23:53.240Z,82.59
2022-12-25T08:28:56.084Z,83.05
2022-12-25T08:34:00.352Z,82.84
2022-12-25T08:39:04.866Z,82.94
2022-12-25T08:44:07.745Z,82.99
2022-12-25T08:49:10.544Z,83.33
2022-12-25T08:54:14.816Z,83.26
2022-12-25T08:59:17.623Z,83.62
2022-12-25T09:04:20.603Z,83.31
2022-12-25T09:09:28.521Z,83.54
2022-12-25T09:14:32.156Z,83.14
2022-12-25T09:19:35.070Z,82.81
2022-12-25T09:24:39.862Z,82.80
2022-12-25T09:29:42.607Z,82.25
2022-12-25T09:34:45.793Z,82.33
2022-12-25T09:39:49.895Z,82.33
2022-12-25T09:44:55.201Z,82.01
2022-12-25T09:50:02.380Z,82.36
2022-12-25T09:55:17.889Z,82.26
2022-12-25T10:00:24.905Z,82.41
2022-12-25T10:05:53.681Z,82.45
2022-12-25T10:11:01.382Z,82.84
2022-12-25T10:16:14.792Z,83.05
2022-12-25T10:21:19.345Z,82.99
2022-12-25T10:26:25.304Z,82.95
2022-12-25T10:31:30.380Z,82.67
2022-12-25T10:36:35.227Z,82.33
2022-12-25T10:41:54.401Z,82.41
2022-12-25T10:46:59.043Z,82.53
2022-12-25T10:52:02.575Z,82.34
2022-12-25T10:57:16.177Z,82.49
2022-12-25T11:02:22.513Z,82.83
2022-12-25T11:07:26.694Z,83.04
2022-12-25T11:12:33.215Z,82.75
2022-12-25T11:17:36.775Z,82.64
2022-12-25T11:22:45.355Z,83.03
2022-12-25T11:27:58.259Z,83.18
2022-12-25T11:33:02.696Z,83.28
2022-12-25T11:38:05.467Z,83.84
2022-12-25T11:43:13.389Z,83.77
2022-12-25T11:48:19.497Z,83.95
2022-12-25T11:53:26.505Z,84.02
2022-12-25T11:58:33.806Z,84.18
2022-12-25T12:03:38.549Z,83.65
2022-12-25T12:08:42.046Z,83.30
2022-12-25T12:14:06.669Z,82.79
2022-12-25T12:19:13.877Z,82.75
2022-12-25T12:24:19.017Z,82.93
2022-12-25T12:29:28.265Z,83.29
2022-12-25T12:34:33.173Z,83.27
2022-12-25T12:39:38.213Z,83.21
2022-12-25T12:44:42.630Z,83.10
2022-12-25T12:49:45.462Z,83.14
2022-12-25T12:54:56.585Z,83.02
2022-12-25T13:00:08.590Z,83.22
2022-12-25T13:05:19.098Z,83.40
2022-12-25T13:10:25.687Z,83.61
2022-12-25T13:15:32.316Z,83.49
2022-12-25T13:20:43.117Z,83.86
2022-12-25T13:25:53.295Z,84.01
2022-12-25T13:31:04.747Z,84.29
2022-12-25T13:36:11.676Z,84.34
2022-12-25T13:41:36.766Z,84.85
2022-12-25T13:46:41.117Z,85.00
2022-12-25T13:51:44.214Z,85.35
2022-12-25T13:56:49.339Z,85.53
2022-12-25T14:01:54.564Z,85.54
2022-12-25T14:06:57.398Z,85.82
2022-12-25T14:12:00.131Z,85.81
2022-12-25T14:17:05.873Z,85.89
2022-12-25T14:22:12.464Z,86.39
2022-12-25T14:27:19.626Z,86.38
2022-12-25T14:32:25.453Z,86.49
2022-12-25T14:37:30.542Z,86.48
2022-12-25T14:42:35.528Z,86.76
2022-12-25T14:47:52.169Z,87.07
2022-12-25T14:52:55.245Z,87.42
2022-12-25T14:58:00.495Z,87.28
2022-12-25T15:03:06.585Z,87.59
2022-12-25T15:08:23.866Z,87.94
2022-12-25T15:13:27.607Z,88.16
2022-12-25T15:18:35.759Z,88.04
2022-12-25T15:23:38.507Z,88.58
2022-12-25T15:28:41.249Z,88.76
2022-12-25T15:33:45.382Z,88.51
2022-12-25T15:38:48.338Z,88.71
2022-12-25T15:43:51.059Z,88.91
2022-12-25T15:48:55.116Z,88.69
2022-12-25T15:53:58.958Z,88.94
2022-12-25T15:59:01.653Z,88.58
2022-12-25T16:04:05.907Z,88.73
2022-12-25T16:09:08.637Z,88.93
2022-12-25T16:14:11.446Z,89.08
2022-12-25T16:19:15.627Z,89.11
2022-12-25T16:24:18.904Z,89.29
2022-12-25T16:29:21.922Z,89.53
2022-12-25T16:34:26.238Z,89.62
2022-12-25T16:39:29.016Z,89.78
2022-12-25T16:44:31.748Z,89.57
2022-12-25T16:49:36.314Z,89.93
2022-12-25T16:54:39.087Z,89.80
2022-12-25T16:59:41.908Z,89.92
2022-12-25T17:04:46.584Z,90.03
2022-12-25T17:09:49.736Z,90.01
2022-12-25T17:14:53.311Z,90.56
2022-12-25T17:19:57.585Z,90.25
2022-12-25T17:25:00.375Z,90.18
2022-12-25T17:30:03.252Z,90.31
2022-12-25T17:35:07.969Z,90.53
2022-12-25T17:40:11.633Z,90.35
2022-12-25T17:45:14.330Z,90.38
2022-12-25T17:50:18.697Z,90.77
2022-12-25T17:55:21.398Z,90.56
2022-12-25T18:00:24.232Z,90.78
2022-12-25T18:05:28.407Z,91.09
2022-12-25T18:10:31.701Z,91.17
2022-12-25T18:15:38.041Z,90.94
2022-12-25T18:20:42.616Z,91.40
2022-12-25T18:25:45.496Z,91.08
2022-12-25T18:30:48.884Z,90.54
2022-12-25T18:35:58.203Z,90.33
2022-12-25T18:41:00.976Z,90.07
2022-12-25T18:46:05.702Z,89.90
2022-12-25T18:51:12.876Z,89.66
2022-12-25T18:56:18.832Z,89.33
2022-12-25T19:01:23.555Z,88.59
2022-12-25T19:06:28.836Z,88.67
2022-12-25T19:11:32.202Z,88.32
2022-12-25T19:16:35.512Z,88.21
2022-12-25T19:21:40.014Z,88.31
2022-12-25T19:26:43.910Z,88.06
2022-12-25T19:31:47.392Z,88.02
2022-12-25T19:36:51.666Z,88.02
2022-12-25T19:41:54.691Z,87.95
2022-12-25T19:46:57.504Z,87.77
2022-12-25T19:52:03.177Z,87.86
2022-12-25T19:57:06.003Z,87.74
2022-12-25T20:02:10.256Z,87.68
2022-12-25T20:07:14.434Z,87.54
2022-12-25T20:12:17.158Z,87.70
2022-12-25T20:17:19.897Z,87.51
2022-12-25T20:22:24.405Z,87.55
2022-12-25T20:27:27.216Z,87.34
2022-12-25T20:32:30.786Z,87.29
2022-12-25T20:37:34.849Z,87.04
2022-12-25T20:42:37.598Z,86.97
2022-12-25T20:47:40.276Z,86.99
2022-12-25T20:52:44.456Z,86.78
2022-12-25T20:57:47.173Z,86.96
2022-12-25T21:02:50.309Z,86.98
2022-12-25T21:07:54.539Z,86.91
2022-12-25T21:12:57.272Z,86.96
2022-12-25T21:18:00.041Z,86.84
2022-12-25T21:23:04.268Z,86.80
2022-12-25T21:28:07.055Z,86.58
2022-12-25T21:33:28.734Z,86.47
2022-12-25T21:38:33.167Z,86.29
2022-12-25T21:43:36.277Z,86.28
2022-12-25T21:48:39.802Z,86.10
2022-12-25T21:53:43.886Z,86.01
2022-12-25T21:58:47.104Z,85.93
2022-12-25T22:03:50.107Z,85.82
2022-12-25T22:08:54.284Z,85.77
2022-12-25T22:14:14.774Z,85.61
2022-12-25T22:19:35.311Z,85.62
2022-12-25T22:24:39.489Z,85.43
2022-12-25T22:29:42.298Z,85.43
2022-12-25T22:34:45.142Z,85.31
2022-12-25T22:39:49.309Z,85.21
2022-12-25T22:44:52.102Z,85.05
2022-12-25T22:49:54.888Z,85.08
2022-12-25T22:54:59.035Z,85.02
2022-12-25T23:00:01.991Z,85.01
2022-12-25T23:05:05.517Z,84.93
2022-12-25T23:10:10.553Z,84.93
2022-12-25T23:15:13.383Z,84.81
2022-12-25T23:20:33.884Z,84.83
2022-12-25T23:25:55.443Z,84.91
2022-12-25T23:30:58.223Z,84.99
2022-12-25T23:36:00.988Z,85.00
2022-12-25T23:41:05.155Z,84.91
2022-12-25T23:46:08.007Z,84.97
2022-12-25T23:51:10.817Z,84.90
2022-12-25T23:56:14.945Z,84.82
